createdAt,value
2018-04-14T00:00:23.112Z,0.00
2018-04-14T00:01:23.055Z,0.00
2018-04-14T00:03:14.889Z,0.00
2018-04-14T00:04:14.798Z,0.00
2018-04-14T00:06:07.080Z,0.00
2018-04-14T00:07:07.018Z,0.00
2018-04-14T00:08:58.837Z,0.00
2018-04-14T00:09:58.751Z,0.00
2018-04-14T00:11:50.692Z,0.19
2018-04-14T00:12:50.618Z,0.38
2018-04-14T00:14:42.618Z,0.57
2018-04-14T00:15:42.502Z,1.24
2018-04-14T00:17:35.287Z,1.04
2018-04-14T00:18:35.230Z,1.14
2018-04-14T00:20:28.031Z,1.43
2018-04-14T00:21:27.938Z,1.53
2018-04-14T00:23:20.734Z,1.14
2018-04-14T00:24:20.668Z,0.48
2018-04-14T00:26:12.497Z,0.28
2018-04-14T00:27:12.434Z,0.00
2018-04-14T00:29:04.198Z,0.00
2018-04-14T00:30:04.132Z,0.09
2018-04-14T00:31:55.895Z,0.00
2018-04-14T00:32:55.831Z,0.00
2018-04-14T00:34:47.654Z,0.00
2018-04-14T00:35:47.615Z,0.00
2018-04-14T00:37:39.364Z,0.00
2018-04-14T00:38:39.282Z,0.00
2018-04-14T00:40:31.097Z,0.00
2018-04-14T00:41:31.017Z,0.00
2018-04-14T00:43:22.926Z,0.00
2018-04-14T00:44:22.939Z,0.00
2018-04-14T00:46:14.669Z,0.00
2018-04-14T00:47:14.617Z,0.00
2018-04-14T00:49:06.376Z,0.00
2018-04-14T00:50:06.305Z,0.00
2018-04-14T00:51:59.075Z,0.00
2018-04-14T00:52:59.057Z,0.00
2018-04-14T00:54:51.799Z,0.00
2018-04-14T00:55:51.727Z,0.00
2018-04-14T00:57:44.519Z,0.00
2018-04-14T00:58:44.442Z,0.00
2018-04-14T01:00:36.339Z,0.09
2018-04-14T01:01:36.260Z,0.09
2018-04-14T01:03:29.068Z,0.09
2018-04-14T01:04:28.975Z,0.00
2018-04-14T01:06:20.731Z,0.19
2018-04-14T01:07:20.666Z,0.19
2018-04-14T01:09:12.620Z,0.57
2018-04-14T01:10:12.542Z,0.09
2018-04-14T01:12:04.424Z,0.19
2018-04-14T01:13:04.348Z,0.19
2018-04-14T01:14:56.181Z,0.09
2018-04-14T01:15:56.102Z,0.09
2018-04-14T01:17:47.939Z,0.48
2018-04-14T01:18:47.871Z,0.28
2018-04-14T01:20:39.785Z,0.19
2018-04-14T01:21:39.707Z,0.00
2018-04-14T01:23:31.677Z,0.00
2018-04-14T01:24:31.600Z,0.00
2018-04-14T01:26:23.412Z,0.00
2018-04-14T01:27:23.334Z,0.19
2018-04-14T01:29:16.089Z,0.00
2018-04-14T01:30:16.030Z,0.00
2018-04-14T01:32:07.845Z,0.00
2018-04-14T01:33:07.769Z,0.00
2018-04-14T01:34:59.770Z,0.00
2018-04-14T01:35:59.672Z,0.00
2018-04-14T01:37:51.482Z,0.00
2018-04-14T01:38:51.380Z,0.00
2018-04-14T01:40:43.304Z,0.00
2018-04-14T01:41:43.183Z,0.00
2018-04-14T01:43:35.064Z,0.00
2018-04-14T01:44:35.001Z,0.00
2018-04-14T01:46:26.848Z,0.00
2018-04-14T01:47:26.767Z,0.00
2018-04-14T01:49:19.538Z,0.00
2018-04-14T01:50:19.479Z,0.00
2018-04-14T01:52:11.331Z,0.00
2018-04-14T01:53:11.244Z,0.00
2018-04-14T01:55:03.021Z,0.00
2018-04-14T01:56:02.939Z,0.00
2018-04-14T01:57:54.853Z,0.00
2018-04-14T01:58:54.772Z,0.00
2018-04-14T02:00:47.594Z,0.19
2018-04-14T02:01:47.501Z,0.00
2018-04-14T02:03:39.335Z,0.38
2018-04-14T02:04:39.272Z,0.28
2018-04-14T02:06:31.034Z,0.00
2018-04-14T02:07:30.959Z,0.00
2018-04-14T02:09:22.744Z,0.09
2018-04-14T02:10:22.683Z,0.00
2018-04-14T02:12:14.534Z,0.00
2018-04-14T02:13:14.445Z,0.00
2018-04-14T02:15:06.276Z,0.00
2018-04-14T02:16:06.181Z,0.00
2018-04-14T02:17:57.980Z,0.00
2018-04-14T02:18:57.905Z,0.00
2018-04-14T02:20:49.850Z,0.00
2018-04-14T02:21:49.788Z,0.00
2018-04-14T02:23:42.558Z,0.00
2018-04-14T02:24:42.480Z,0.00
2018-04-14T02:26:34.314Z,0.00
2018-04-14T02:27:34.217Z,0.00
2018-04-14T02:29:26.036Z,0.00
2018-04-14T02:30:25.972Z,0.00
2018-04-14T02:32:17.960Z,0.00
2018-04-14T02:33:17.872Z,0.00
2018-04-14T02:35:10.648Z,0.00
2018-04-14T02:36:10.584Z,0.00
2018-04-14T02:38:02.425Z,0.00
2018-04-14T02:39:02.385Z,0.00
2018-04-14T02:40:54.286Z,0.00
2018-04-14T02:41:54.272Z,0.00
2018-04-14T02:43:46.016Z,0.00
2018-04-14T02:44:45.937Z,0.00
2018-04-14T02:46:37.771Z,0.00
2018-04-14T02:47:37.710Z,0.00
2018-04-14T02:49:29.521Z,0.00
2018-04-14T02:50:29.418Z,0.00
2018-04-14T02:52:22.201Z,0.00
2018-04-14T02:53:22.129Z,0.00
2018-04-14T02:55:13.875Z,0.00
2018-04-14T02:56:13.813Z,0.00
2018-04-14T02:58:05.573Z,0.00
2018-04-14T02:59:05.497Z,0.00
2018-04-14T03:00:57.312Z,0.00
2018-04-14T03:01:57.228Z,0.00
2018-04-14T03:03:49.039Z,0.00
2018-04-14T03:04:48.941Z,0.00
2018-04-14T03:06:40.913Z,0.00
2018-04-14T03:07:40.828Z,0.00
2018-04-14T03:09:33.594Z,0.00
2018-04-14T03:10:33.518Z,0.00
2018-04-14T03:12:25.347Z,0.00
2018-04-14T03:13:25.277Z,0.00
2018-04-14T03:15:17.073Z,0.00
2018-04-14T03:16:17.008Z,0.00
2018-04-14T03:18:08.786Z,0.00
2018-04-14T03:19:08.717Z,0.00
2018-04-14T03:21:00.525Z,0.00
2018-04-14T03:22:00.467Z,0.00
2018-04-14T03:23:53.234Z,0.00
2018-04-14T03:24:53.164Z,0.00
2018-04-14T03:26:44.925Z,0.00
2018-04-14T03:27:44.849Z,0.00
2018-04-14T03:29:36.626Z,0.00
2018-04-14T03:30:36.549Z,0.00
2018-04-14T03:32:28.458Z,0.00
2018-04-14T03:33:28.388Z,0.00
2018-04-14T03:35:20.163Z,0.00
2018-04-14T03:36:20.107Z,0.00
2018-04-14T03:38:12.856Z,0.00
2018-04-14T03:39:12.797Z,0.00
2018-04-14T03:41:04.539Z,0.00
2018-04-14T03:42:04.475Z,0.00
2018-04-14T03:43:56.323Z,0.00
2018-04-14T03:44:56.200Z,0.00
2018-04-14T03:46:48.077Z,0.00
2018-04-14T03:47:48.008Z,0.00
2018-04-14T03:49:40.821Z,0.00
2018-04-14T03:50:40.759Z,0.00
2018-04-14T03:52:32.526Z,0.00
2018-04-14T03:53:32.461Z,0.00
2018-04-14T03:55:24.256Z,0.00
2018-04-14T03:56:24.160Z,0.00
2018-04-14T03:58:15.989Z,0.00
2018-04-14T03:59:15.915Z,0.00
2018-04-14T04:01:07.773Z,0.00
2018-04-14T04:02:07.731Z,0.00
2018-04-14T04:04:01.509Z,0.00
2018-04-14T04:05:01.421Z,0.00
2018-04-14T04:06:53.258Z,0.00
2018-04-14T04:07:53.222Z,0.00
2018-04-14T04:09:44.973Z,0.00
2018-04-14T04:10:44.897Z,0.00
2018-04-14T04:12:36.693Z,0.00
2018-04-14T04:13:36.607Z,0.00
2018-04-14T04:15:28.540Z,0.00
2018-04-14T04:16:28.464Z,0.00
2018-04-14T04:18:20.295Z,0.00
2018-04-14T04:19:20.209Z,0.00
2018-04-14T04:21:11.987Z,0.00
2018-04-14T04:22:11.909Z,0.00
2018-04-14T04:24:03.769Z,0.00
2018-04-14T04:25:03.704Z,0.00
2018-04-14T04:26:55.630Z,0.00
2018-04-14T04:27:55.527Z,0.00
2018-04-14T04:29:47.419Z,0.00
2018-04-14T04:30:47.339Z,0.00
2018-04-14T04:32:39.188Z,0.00
2018-04-14T04:33:39.115Z,0.00
2018-04-14T04:35:31.898Z,0.00
2018-04-14T04:36:31.824Z,0.00
2018-04-14T04:38:23.650Z,0.00
2018-04-14T04:39:23.589Z,0.00
2018-04-14T04:41:15.363Z,0.00
2018-04-14T04:42:15.286Z,0.00
2018-04-14T04:44:08.062Z,0.00
2018-04-14T04:45:08.010Z,0.00
2018-04-14T04:47:00.840Z,0.00
2018-04-14T04:48:00.756Z,0.00
2018-04-14T04:49:53.533Z,0.00
2018-04-14T04:50:53.463Z,0.00
2018-04-14T04:52:45.332Z,0.00
2018-04-14T04:53:45.255Z,0.00
2018-04-14T04:55:37.025Z,0.00
2018-04-14T04:56:36.963Z,0.00
2018-04-14T04:58:28.748Z,0.00
2018-04-14T04:59:28.682Z,0.00
2018-04-14T05:01:20.467Z,0.00
2018-04-14T05:02:20.387Z,0.00
2018-04-14T05:04:12.158Z,0.00
2018-04-14T05:05:12.097Z,0.00
2018-04-14T05:07:04.900Z,0.00
2018-04-14T05:08:04.818Z,0.00
2018-04-14T05:09:56.665Z,0.00
2018-04-14T05:10:56.543Z,0.00
2018-04-14T05:12:48.366Z,0.00
2018-04-14T05:13:48.300Z,0.00
2018-04-14T05:15:41.052Z,0.00
2018-04-14T05:16:40.989Z,0.00
2018-04-14T05:18:33.773Z,0.00
2018-04-14T05:19:33.699Z,0.00
2018-04-14T05:21:26.476Z,0.00
2018-04-14T05:22:26.396Z,0.00
2018-04-14T05:24:19.165Z,0.00
2018-04-14T05:25:19.109Z,0.00
2018-04-14T05:27:11.070Z,0.00
2018-04-14T05:28:10.999Z,0.00
2018-04-14T05:30:02.938Z,0.00
2018-04-14T05:31:02.870Z,0.00
2018-04-14T05:32:55.678Z,0.00
2018-04-14T05:33:55.580Z,0.00
2018-04-14T05:35:48.371Z,0.00
2018-04-14T05:36:48.305Z,0.00
2018-04-14T05:38:41.075Z,0.00
2018-04-14T05:39:41.002Z,0.00
2018-04-14T05:41:33.763Z,0.00
2018-04-14T05:42:33.711Z,0.00
2018-04-14T05:44:26.478Z,0.00
2018-04-14T05:45:26.406Z,0.00
2018-04-14T05:47:19.202Z,0.00
2018-04-14T05:48:19.121Z,0.00
2018-04-14T05:50:10.883Z,0.00
2018-04-14T05:51:10.822Z,0.00
2018-04-14T05:53:03.601Z,0.00
2018-04-14T05:54:03.538Z,0.00
2018-04-14T05:55:55.412Z,0.00
2018-04-14T05:56:55.350Z,0.00
2018-04-14T05:58:48.159Z,0.00
2018-04-14T05:59:48.055Z,0.00
2018-04-14T06:01:39.942Z,0.00
2018-04-14T06:02:39.884Z,0.00
2018-04-14T06:04:31.677Z,0.00
2018-04-14T06:05:31.580Z,0.00
2018-04-14T06:07:24.366Z,0.00
2018-04-14T06:08:24.298Z,0.00
2018-04-14T06:10:17.066Z,0.00
2018-04-14T06:11:17.023Z,0.00
2018-04-14T06:13:08.937Z,0.00
2018-04-14T06:14:08.862Z,0.00
2018-04-14T06:16:01.635Z,0.00
2018-04-14T06:17:01.569Z,0.00
2018-04-14T06:18:53.335Z,0.00
2018-04-14T06:19:53.258Z,0.00
2018-04-14T06:21:45.167Z,0.00
2018-04-14T06:22:45.100Z,0.00
2018-04-14T06:24:36.935Z,0.00
2018-04-14T06:25:36.861Z,0.00
2018-04-14T06:27:29.621Z,0.00
2018-04-14T06:28:29.564Z,0.00
2018-04-14T06:30:21.336Z,0.00
2018-04-14T06:31:21.252Z,0.00
2018-04-14T06:33:13.164Z,0.00
2018-04-14T06:34:13.076Z,0.00
2018-04-14T06:36:04.856Z,0.00
2018-04-14T06:37:04.792Z,0.00
2018-04-14T06:38:56.620Z,0.00
2018-04-14T06:39:56.539Z,0.00
2018-04-14T06:41:48.441Z,0.00
2018-04-14T06:42:48.497Z,0.00
2018-04-14T06:44:40.187Z,0.00
2018-04-14T06:45:40.114Z,0.00
2018-04-14T06:47:32.885Z,0.00
2018-04-14T06:48:32.820Z,0.00
2018-04-14T06:50:24.630Z,0.00
2018-04-14T06:51:24.560Z,0.00
2018-04-14T06:53:16.410Z,0.00
2018-04-14T06:54:16.340Z,0.00
2018-04-14T06:56:08.134Z,0.00
2018-04-14T06:57:08.050Z,0.00
2018-04-14T06:58:59.812Z,0.00
2018-04-14T06:59:59.740Z,0.00
2018-04-14T07:01:52.552Z,0.00
2018-04-14T07:02:52.456Z,0.00
2018-04-14T07:04:44.242Z,0.00
2018-04-14T07:05:44.168Z,0.00
2018-04-14T07:07:35.926Z,0.00
2018-04-14T07:08:35.851Z,0.00
2018-04-14T07:10:27.677Z,0.00
2018-04-14T07:11:27.604Z,0.00
2018-04-14T07:13:20.376Z,0.00
2018-04-14T07:14:20.333Z,0.00
2018-04-14T07:16:12.096Z,0.00
2018-04-14T07:17:12.022Z,0.00
2018-04-14T07:19:03.995Z,0.00
2018-04-14T07:20:03.922Z,0.00
2018-04-14T07:21:55.751Z,0.00
2018-04-14T07:22:55.681Z,0.00
2018-04-14T07:24:48.494Z,0.00
2018-04-14T07:25:48.417Z,0.00
2018-04-14T07:27:40.179Z,0.00
2018-04-14T07:28:40.116Z,0.00
2018-04-14T07:30:32.895Z,0.00
2018-04-14T07:31:32.859Z,0.00
2018-04-14T07:33:24.570Z,0.00
2018-04-14T07:34:24.508Z,0.00
2018-04-14T07:36:16.291Z,0.00
2018-04-14T07:37:16.209Z,0.00
2018-04-14T07:39:09.008Z,0.00
2018-04-14T07:40:08.967Z,0.00
2018-04-14T07:42:01.744Z,0.00
2018-04-14T07:43:01.663Z,0.00
2018-04-14T07:44:53.503Z,0.00
2018-04-14T07:45:53.425Z,0.00
2018-04-14T07:47:45.273Z,0.00
2018-04-14T07:48:45.207Z,0.00
2018-04-14T07:50:36.988Z,0.00
2018-04-14T07:51:36.927Z,0.00
2018-04-14T07:53:29.676Z,0.00
2018-04-14T07:54:29.611Z,0.00
2018-04-14T07:56:21.530Z,0.00
2018-04-14T07:57:21.454Z,0.00
2018-04-14T07:59:14.254Z,0.00
2018-04-14T08:00:14.191Z,0.00
2018-04-14T08:02:06.982Z,0.00
2018-04-14T08:03:06.908Z,0.00
2018-04-14T08:04:58.797Z,0.00
2018-04-14T08:05:58.722Z,0.00
2018-04-14T08:07:50.546Z,0.00
2018-04-14T08:08:50.474Z,0.00
2018-04-14T08:10:43.296Z,0.00
2018-04-14T08:11:43.191Z,0.00
2018-04-14T08:13:35.023Z,0.00
2018-04-14T08:14:34.955Z,0.00
2018-04-14T08:16:26.727Z,0.00
2018-04-14T08:17:26.657Z,0.00
2018-04-14T08:19:19.433Z,0.00
2018-04-14T08:20:19.371Z,0.00
2018-04-14T08:22:12.223Z,0.00
2018-04-14T08:23:12.090Z,0.00
2018-04-14T08:25:04.877Z,1.72
2018-04-14T08:26:04.814Z,0.00
2018-04-14T08:27:57.606Z,0.00
2018-04-14T08:28:57.537Z,0.67
2018-04-14T08:30:49.388Z,1.15
2018-04-14T08:31:49.311Z,9.67
2018-04-14T08:33:42.122Z,18.10
2018-04-14T08:34:42.022Z,14.56
2018-04-14T08:36:33.941Z,12.93
2018-04-14T08:37:33.867Z,11.58
2018-04-14T08:39:25.695Z,18.00
2018-04-14T08:40:25.639Z,10.91
2018-04-14T08:42:17.424Z,1.72
2018-04-14T08:43:17.353Z,0.00
2018-04-14T08:45:09.130Z,3.63
2018-04-14T08:46:09.070Z,0.00
2018-04-14T08:48:01.873Z,0.95
2018-04-14T08:49:01.799Z,0.00
2018-04-14T08:50:54.576Z,0.00
2018-04-14T08:51:54.518Z,0.00
2018-04-14T08:53:46.458Z,20.58
2018-04-14T08:54:46.340Z,6.79
2018-04-14T08:56:39.167Z,17.33
2018-04-14T08:57:39.074Z,8.23
2018-04-14T08:59:30.885Z,9.48
2018-04-14T09:00:30.772Z,17.23
2018-04-14T09:02:22.657Z,12.54
2018-04-14T09:03:22.587Z,7.27
2018-04-14T09:05:14.390Z,0.57
2018-04-14T09:06:14.337Z,4.97
2018-04-14T09:08:06.146Z,0.67
2018-04-14T09:09:06.091Z,0.00
2018-04-14T09:10:57.850Z,1.62
2018-04-14T09:11:57.809Z,0.00
2018-04-14T09:13:49.639Z,1.53
2018-04-14T09:14:49.572Z,0.00
2018-04-14T09:16:41.392Z,6.98
2018-04-14T09:17:41.300Z,10.23
2018-04-14T09:19:33.080Z,9.27
2018-04-14T09:20:33.004Z,2.77
2018-04-14T09:22:24.780Z,0.19
2018-04-14T09:23:24.708Z,0.00
2018-04-14T09:25:16.480Z,4.01
2018-04-14T09:26:16.411Z,5.07
2018-04-14T09:28:08.193Z,9.37
2018-04-14T09:29:08.122Z,3.16
2018-04-14T09:30:59.883Z,0.00
2018-04-14T09:31:59.833Z,4.30
2018-04-14T09:33:51.607Z,12.05
2018-04-14T09:34:51.527Z,17.14
2018-04-14T09:36:43.281Z,14.36
2018-04-14T09:37:43.225Z,25.00
2018-04-14T09:39:35.021Z,28.45
2018-04-14T09:40:34.956Z,33.24
2018-04-14T09:42:26.754Z,16.76
2018-04-14T09:43:26.666Z,29.69
2018-04-14T09:45:18.471Z,32.47
2018-04-14T09:46:18.427Z,28.35
2018-04-14T09:48:10.212Z,62.20
2018-04-14T09:49:10.176Z,37.20
2018-04-14T09:51:01.932Z,57.56
2018-04-14T09:52:01.844Z,45.36
2018-04-14T09:53:53.641Z,50.73
2018-04-14T09:54:53.572Z,47.94
2018-04-14T09:56:45.357Z,44.20
2018-04-14T09:57:45.294Z,66.13
2018-04-14T09:59:37.162Z,48.78
2018-04-14T10:00:37.084Z,44.27
2018-04-14T10:02:29.025Z,28.08
2018-04-14T10:03:28.821Z,53.16
2018-04-14T10:05:20.607Z,37.93
2018-04-14T10:06:20.498Z,25.10
2018-04-14T10:08:12.312Z,46.84
2018-04-14T10:09:12.232Z,53.45
2018-04-14T10:11:03.986Z,35.92
2018-04-14T10:12:03.918Z,31.61
2018-04-14T10:13:55.758Z,41.48
2018-04-14T10:14:55.621Z,30.18
2018-04-14T10:16:47.382Z,47.51
2018-04-14T10:17:47.316Z,44.93
2018-04-14T10:19:39.146Z,44.54
2018-04-14T10:20:39.032Z,46.75
2018-04-14T10:22:30.774Z,31.21
2018-04-14T10:23:30.720Z,47.01
2018-04-14T10:25:22.518Z,33.70
2018-04-14T10:26:22.483Z,30.16
2018-04-14T10:28:14.260Z,30.35
2018-04-14T10:29:14.155Z,34.37
2018-04-14T10:31:05.976Z,59.45
2018-04-14T10:32:05.949Z,37.82
2018-04-14T10:33:57.734Z,34.39
2018-04-14T10:34:57.794Z,52.20
2018-04-14T10:36:49.416Z,40.71
2018-04-14T10:37:49.425Z,46.84
2018-04-14T10:39:41.152Z,40.81
2018-04-14T10:40:41.077Z,43.87
2018-04-14T10:42:32.874Z,54.32
2018-04-14T10:43:32.816Z,46.84
2018-04-14T10:45:24.618Z,47.32
2018-04-14T10:46:24.516Z,58.24
2018-04-14T10:48:16.323Z,43.20
2018-04-14T10:49:16.288Z,64.66
2018-04-14T10:51:08.060Z,42.82
2018-04-14T10:52:07.974Z,51.63
2018-04-14T10:53:59.769Z,63.19
2018-04-14T10:54:59.690Z,49.14
2018-04-14T10:56:51.511Z,45.86
2018-04-14T10:57:51.466Z,41.65
2018-04-14T10:59:43.244Z,31.42
2018-04-14T11:00:43.144Z,65.33
2018-04-14T11:02:34.910Z,39.37
2018-04-14T11:03:34.860Z,56.32
2018-04-14T11:05:26.651Z,44.73
2018-04-14T11:06:26.580Z,60.06
2018-04-14T11:08:18.396Z,54.79
2018-04-14T11:09:18.314Z,47.80
2018-04-14T11:11:10.095Z,65.01
2018-04-14T11:12:10.017Z,57.54
2018-04-14T11:14:01.813Z,43.76
2018-04-14T11:15:01.766Z,46.34
2018-04-14T11:16:54.524Z,44.23
2018-04-14T11:17:54.540Z,39.92
2018-04-14T11:19:46.253Z,37.05
2018-04-14T11:20:46.171Z,33.22
2018-04-14T11:22:37.958Z,41.65
2018-04-14T11:23:37.902Z,38.49
2018-04-14T11:25:29.663Z,41.00
2018-04-14T11:26:29.601Z,54.32
2018-04-14T11:28:21.412Z,54.34
2018-04-14T11:29:21.349Z,46.67
2018-04-14T11:31:13.149Z,74.02
2018-04-14T11:32:13.061Z,75.50
2018-04-14T11:34:04.843Z,63.45
2018-04-14T11:35:04.765Z,67.67
2018-04-14T11:36:56.542Z,61.62
2018-04-14T11:37:56.505Z,73.33
2018-04-14T11:39:48.295Z,71.12
2018-04-14T11:40:48.190Z,75.63
2018-04-14T11:42:40.059Z,72.47
2018-04-14T11:43:39.899Z,81.97
2018-04-14T11:45:31.696Z,85.96
2018-04-14T11:46:31.603Z,85.86
2018-04-14T11:48:23.388Z,70.70
2018-04-14T11:49:23.296Z,62.16
2018-04-14T11:51:15.086Z,81.84
2018-04-14T11:52:15.033Z,56.22
2018-04-14T11:54:06.834Z,68.79
2018-04-14T11:55:06.773Z,63.51
2018-04-14T11:56:58.591Z,73.49
2018-04-14T11:57:58.521Z,78.77
2018-04-14T11:59:50.353Z,64.66
2018-04-14T12:00:50.258Z,83.18
2018-04-14T12:02:42.058Z,62.26
2018-04-14T12:03:42.042Z,56.12
2018-04-14T12:05:33.786Z,59.29
2018-04-14T12:06:33.703Z,72.20
2018-04-14T12:08:25.501Z,69.23
2018-04-14T12:09:25.438Z,65.88
2018-04-14T12:11:17.265Z,58.59
2018-04-14T12:12:17.159Z,51.97
2018-04-14T12:14:08.915Z,57.63
2018-04-14T12:15:08.897Z,54.85
2018-04-14T12:17:00.781Z,53.28
2018-04-14T12:18:00.620Z,44.18
2018-04-14T12:19:52.400Z,64.22
2018-04-14T12:20:52.364Z,40.56
2018-04-14T12:22:44.131Z,44.18
2018-04-14T12:23:44.065Z,43.63
2018-04-14T12:25:35.867Z,73.13
2018-04-14T12:26:35.773Z,72.64
2018-04-14T12:28:27.554Z,43.80
2018-04-14T12:29:27.514Z,69.10
2018-04-14T12:31:19.317Z,64.12
2018-04-14T12:32:19.193Z,66.32
2018-04-14T12:34:11.063Z,50.41
2018-04-14T12:35:10.975Z,70.83
2018-04-14T12:37:02.781Z,59.23
2018-04-14T12:38:02.704Z,69.77
2018-04-14T12:39:54.470Z,59.80
2018-04-14T12:40:54.407Z,54.44
2018-04-14T12:42:46.222Z,67.02
2018-04-14T12:43:46.173Z,59.74
2018-04-14T12:45:38.014Z,59.64
2018-04-14T12:46:37.927Z,60.12
2018-04-14T12:48:29.712Z,74.02
2018-04-14T12:49:29.634Z,72.01
2018-04-14T12:51:21.455Z,63.51
2018-04-14T12:52:21.373Z,57.08
2018-04-14T12:54:13.167Z,75.02
2018-04-14T12:55:13.092Z,61.49
2018-04-14T12:57:04.881Z,77.38
2018-04-14T12:58:04.807Z,53.03
2018-04-14T12:59:56.616Z,67.28
2018-04-14T13:00:56.525Z,64.12
2018-04-14T13:02:48.325Z,57.79
2018-04-14T13:03:48.246Z,40.90
2018-04-14T13:05:40.046Z,44.83
2018-04-14T13:06:39.993Z,43.10
2018-04-14T13:08:31.775Z,56.87
2018-04-14T13:09:31.695Z,46.72
2018-04-14T13:11:23.466Z,47.39
2018-04-14T13:12:23.393Z,44.71
2018-04-14T13:14:15.156Z,23.47
2018-04-14T13:15:15.100Z,42.44
2018-04-14T13:17:06.879Z,43.01
2018-04-14T13:18:06.815Z,49.33
2018-04-14T13:19:59.279Z,39.28
2018-04-14T13:20:59.251Z,43.59
2018-04-14T13:22:51.001Z,43.70
2018-04-14T13:23:50.910Z,50.60
2018-04-14T13:25:42.697Z,52.83
2018-04-14T13:26:42.647Z,61.56
2018-04-14T13:28:34.436Z,54.66
2018-04-14T13:29:34.332Z,63.19
2018-04-14T13:31:26.099Z,59.96
2018-04-14T13:32:26.037Z,61.59
2018-04-14T13:34:17.850Z,61.94
2018-04-14T13:35:17.745Z,61.11
2018-04-14T13:37:09.570Z,62.90
2018-04-14T13:38:09.501Z,59.16
2018-04-14T13:40:01.352Z,50.75
2018-04-14T13:41:01.259Z,62.74
2018-04-14T13:42:53.062Z,55.83
2018-04-14T13:43:52.995Z,65.81
2018-04-14T13:45:44.744Z,66.39
2018-04-14T13:46:44.702Z,58.62
2018-04-14T13:48:36.504Z,56.89
2018-04-14T13:49:36.420Z,53.24
2018-04-14T13:51:28.226Z,66.10
2018-04-14T13:52:28.169Z,61.40
2018-04-14T13:54:19.935Z,57.18
2018-04-14T13:55:19.852Z,67.92
2018-04-14T13:57:11.668Z,64.09
2018-04-14T13:58:11.601Z,70.32
2018-04-14T14:00:03.407Z,67.19
2018-04-14T14:01:03.325Z,71.03
2018-04-14T14:02:55.112Z,62.29
2018-04-14T14:03:55.036Z,75.73
2018-04-14T14:05:46.849Z,64.40
2018-04-14T14:06:46.804Z,82.35
2018-04-14T14:08:38.625Z,74.77
2018-04-14T14:09:38.520Z,62.58
2018-04-14T14:11:30.333Z,62.84
2018-04-14T14:12:30.267Z,60.15
2018-04-14T14:14:22.034Z,65.43
2018-04-14T14:15:21.974Z,62.65
2018-04-14T14:17:13.787Z,66.86
2018-04-14T14:18:13.725Z,62.93
2018-04-14T14:20:05.512Z,64.37
2018-04-14T14:21:05.427Z,70.61
2018-04-14T14:22:57.190Z,64.18
2018-04-14T14:23:57.171Z,69.46
2018-04-14T14:25:48.894Z,62.74
2018-04-14T14:26:48.828Z,69.56
2018-04-14T14:28:40.613Z,64.37
2018-04-14T14:29:40.564Z,76.17
2018-04-14T14:31:32.336Z,78.57
2018-04-14T14:32:32.266Z,79.34
2018-04-14T14:34:24.066Z,69.65
2018-04-14T14:35:24.001Z,75.79
2018-04-14T14:37:15.795Z,80.30
2018-04-14T14:38:15.752Z,66.58
2018-04-14T14:40:07.568Z,78.19
2018-04-14T14:41:07.495Z,75.98
2018-04-14T14:42:59.366Z,89.70
2018-04-14T14:43:59.229Z,75.60
2018-04-14T14:45:50.962Z,84.04
2018-04-14T14:46:50.904Z,81.45
2018-04-14T14:48:42.697Z,90.03
2018-04-14T14:49:42.614Z,82.07
2018-04-14T14:51:34.404Z,97.57
2018-04-14T14:52:34.429Z,93.54
2018-04-14T14:54:26.127Z,99.99
2018-04-14T14:55:26.134Z,92.72
2018-04-14T14:57:17.848Z,93.01
2018-04-14T14:58:17.768Z,97.61
2018-04-14T15:00:09.620Z,86.15
2018-04-14T15:01:09.492Z,90.32
2018-04-14T15:03:01.348Z,95.41
2018-04-14T15:04:01.194Z,96.37
2018-04-14T15:05:53.009Z,92.33
2018-04-14T15:06:52.910Z,87.73
2018-04-14T15:08:44.720Z,92.53
2018-04-14T15:09:44.682Z,96.27
2018-04-14T15:11:36.400Z,99.15
2018-04-14T15:12:36.326Z,99.99
2018-04-14T15:14:28.120Z,93.20
2018-04-14T15:15:28.048Z,86.96
2018-04-14T15:17:19.804Z,79.72
2018-04-14T15:18:19.748Z,94.31
2018-04-14T15:20:11.543Z,88.65
2018-04-14T15:21:11.474Z,95.31
2018-04-14T15:23:03.276Z,83.80
2018-04-14T15:24:03.209Z,92.82
2018-04-14T15:25:54.977Z,78.32
2018-04-14T15:26:54.906Z,83.70
2018-04-14T15:28:46.670Z,75.89
2018-04-14T15:29:46.611Z,74.73
2018-04-14T15:31:38.408Z,69.07
2018-04-14T15:32:38.336Z,63.51
2018-04-14T15:34:30.117Z,65.52
2018-04-14T15:35:30.091Z,59.09
2018-04-14T15:37:21.802Z,65.23
2018-04-14T15:38:21.738Z,75.40
2018-04-14T15:40:13.582Z,66.96
2018-04-14T15:41:13.461Z,73.20
2018-04-14T15:43:05.226Z,73.39
2018-04-14T15:44:05.182Z,74.73
2018-04-14T15:45:56.933Z,71.28
2018-04-14T15:46:56.874Z,76.07
2018-04-14T15:48:48.697Z,74.83
2018-04-14T15:49:48.570Z,74.06
2018-04-14T15:51:40.397Z,79.24
2018-04-14T15:52:40.303Z,75.02
2018-04-14T15:54:32.088Z,74.93
2018-04-14T15:55:32.104Z,80.58
2018-04-14T15:57:23.807Z,80.35
2018-04-14T15:58:23.711Z,64.53
2018-04-14T16:00:15.511Z,72.91
2018-04-14T16:01:15.431Z,76.90
2018-04-14T16:03:07.243Z,79.34
2018-04-14T16:04:09.790Z,75.89
2018-04-14T16:05:58.983Z,72.33
2018-04-14T16:06:58.911Z,75.89
2018-04-14T16:08:50.669Z,79.82
2018-04-14T16:09:50.600Z,91.05
2018-04-14T16:11:42.435Z,74.26
2018-04-14T16:12:42.359Z,77.80
2018-04-14T16:14:34.194Z,79.63
2018-04-14T16:15:34.093Z,81.64
2018-04-14T16:17:25.875Z,71.28
2018-04-14T16:18:25.785Z,65.52
2018-04-14T16:20:17.569Z,71.66
2018-04-14T16:21:17.496Z,78.57
2018-04-14T16:23:09.384Z,77.71
2018-04-14T16:24:09.223Z,84.91
2018-04-14T16:26:01.071Z,74.83
2018-04-14T16:27:00.997Z,70.70
2018-04-14T16:28:52.779Z,78.00
2018-04-14T16:29:52.714Z,76.94
2018-04-14T16:31:44.499Z,70.51
2018-04-14T16:32:44.458Z,76.17
2018-04-14T16:34:36.194Z,58.30
2018-04-14T16:35:36.129Z,58.20
2018-04-14T16:37:27.926Z,63.67
2018-04-14T16:38:27.851Z,60.41
2018-04-14T16:40:19.640Z,58.30
2018-04-14T16:41:19.643Z,59.36
2018-04-14T16:43:11.331Z,61.24
2018-04-14T16:44:11.261Z,57.60
2018-04-14T16:46:03.042Z,58.27
2018-04-14T16:47:02.979Z,55.49
2018-04-14T16:48:54.759Z,50.32
2018-04-14T16:49:54.675Z,48.49
2018-04-14T16:51:46.528Z,54.91
2018-04-14T16:52:46.380Z,48.78
2018-04-14T16:54:38.168Z,41.02
2018-04-14T16:55:38.092Z,53.67
2018-04-14T16:57:29.911Z,47.61
2018-04-14T16:58:29.835Z,54.60
2018-04-14T17:00:21.609Z,48.30
2018-04-14T17:01:21.588Z,45.33
2018-04-14T17:03:13.428Z,53.00
2018-04-14T17:04:13.303Z,44.95
2018-04-14T17:06:05.089Z,52.81
2018-04-14T17:07:04.992Z,42.94
2018-04-14T17:08:56.797Z,40.04
2018-04-14T17:09:56.756Z,53.93
2018-04-14T17:11:48.548Z,58.24
2018-04-14T17:12:48.476Z,53.74
2018-04-14T17:14:40.375Z,52.69
2018-04-14T17:15:40.257Z,37.84
2018-04-14T17:17:32.068Z,28.26
2018-04-14T17:18:32.016Z,30.36
2018-04-14T17:20:23.774Z,35.33
2018-04-14T17:21:23.707Z,40.59
2018-04-14T17:23:15.540Z,44.81
2018-04-14T17:24:15.454Z,35.71
2018-04-14T17:26:07.226Z,29.20
2018-04-14T17:27:07.154Z,37.15
2018-04-14T17:28:59.022Z,34.37
2018-04-14T17:29:58.951Z,39.04
2018-04-14T17:31:50.837Z,38.09
2018-04-14T17:32:50.712Z,38.09
2018-04-14T17:34:42.523Z,38.66
2018-04-14T17:35:42.466Z,33.01
2018-04-14T17:37:34.298Z,23.63
2018-04-14T17:38:34.203Z,24.30
2018-04-14T17:40:26.038Z,17.32
2018-04-14T17:41:26.002Z,18.18
2018-04-14T17:43:17.827Z,10.61
2018-04-14T17:44:17.784Z,11.95
2018-04-14T17:46:09.629Z,11.38
2018-04-14T17:47:09.475Z,13.10
2018-04-14T17:49:01.360Z,9.85
2018-04-14T17:50:01.257Z,6.70
2018-04-14T17:51:53.042Z,10.52
2018-04-14T17:52:52.940Z,3.63
2018-04-14T17:54:45.063Z,5.93
2018-04-14T17:55:44.689Z,2.29
2018-04-14T17:57:36.472Z,9.37
2018-04-14T17:58:36.375Z,2.29
2018-04-14T18:00:28.150Z,0.00
2018-04-14T18:01:28.100Z,0.00
2018-04-14T18:03:19.974Z,0.00
2018-04-14T18:04:19.813Z,0.00
2018-04-14T18:06:11.577Z,0.00
2018-04-14T18:07:11.505Z,0.00
2018-04-14T18:09:03.278Z,0.00
2018-04-14T18:10:03.238Z,0.00
2018-04-14T18:11:54.970Z,0.00
2018-04-14T18:12:54.905Z,0.00
2018-04-14T18:14:46.681Z,0.00
2018-04-14T18:15:46.620Z,0.00
2018-04-14T18:17:38.393Z,0.00
2018-04-14T18:18:38.326Z,0.00
2018-04-14T18:20:30.111Z,0.00
2018-04-14T18:21:30.059Z,0.00
2018-04-14T18:23:21.838Z,0.00
2018-04-14T18:24:21.761Z,0.00
2018-04-14T18:26:13.553Z,0.00
2018-04-14T18:27:13.485Z,0.00
2018-04-14T18:29:05.258Z,0.00
2018-04-14T18:30:05.192Z,0.00
2018-04-14T18:31:56.967Z,0.00
2018-04-14T18:32:56.900Z,0.00
2018-04-14T18:34:48.801Z,0.00
2018-04-14T18:35:48.678Z,0.00
2018-04-14T18:37:40.449Z,0.00
2018-04-14T18:38:40.396Z,0.00
2018-04-14T18:40:32.203Z,0.00
2018-04-14T18:41:32.129Z,0.00
2018-04-14T18:43:24.341Z,0.00
2018-04-14T18:44:24.220Z,0.00
2018-04-14T18:46:15.941Z,0.00